createdAt,value
2018-05-25T00:01:34.566Z,1.00
2018-05-25T00:04:02.954Z,0.90
2018-05-25T00:06:30.550Z,0.83
2018-05-25T00:08:58.156Z,1.00
2018-05-25T00:11:26.517Z,0.73
2018-05-25T00:13:54.119Z,0.80
2018-05-25T00:16:21.718Z,0.70
2018-05-25T00:18:49.330Z,1.00
2018-05-25T00:21:16.926Z,0.73
2018-05-25T00:23:44.539Z,0.73
2018-05-25T00:26:12.931Z,1.10
2018-05-25T00:28:40.542Z,1.00
2018-05-25T00:31:08.910Z,0.80
2018-05-25T00:33:36.518Z,0.97
2018-05-25T00:36:04.125Z,1.00
2018-05-25T00:38:31.746Z,0.87
2018-05-25T00:40:59.346Z,0.90
2018-05-25T00:43:26.946Z,0.90
2018-05-25T00:45:55.315Z,1.00
2018-05-25T00:48:23.676Z,1.13
2018-05-25T00:50:51.296Z,1.13
2018-05-25T00:53:18.900Z,0.80
2018-05-25T00:55:46.520Z,0.80
2018-05-25T00:58:14.125Z,1.23
2018-05-25T01:00:42.522Z,1.40
2018-05-25T01:03:10.910Z,1.10
2018-05-25T01:05:38.503Z,1.07
2018-05-25T01:08:06.102Z,1.00
2018-05-25T01:10:34.471Z,0.93
2018-05-25T01:13:02.078Z,0.83
2018-05-25T01:15:29.666Z,1.00
2018-05-25T01:17:57.287Z,2.53
2018-05-25T01:20:24.902Z,1.73
2018-05-25T01:22:52.509Z,1.07
2018-05-25T01:25:20.114Z,1.30
2018-05-25T01:27:47.706Z,0.90
2018-05-25T01:30:16.079Z,1.10
2018-05-25T01:32:44.458Z,0.80
2018-05-25T01:35:12.838Z,1.00
2018-05-25T01:37:41.215Z,0.70
2018-05-25T01:40:09.586Z,0.93
2018-05-25T01:42:37.945Z,0.70
2018-05-25T01:45:05.554Z,0.80
2018-05-25T01:47:33.165Z,1.10
2018-05-25T01:50:00.757Z,0.97
2018-05-25T01:52:29.127Z,0.83
2018-05-25T01:54:57.494Z,1.07
2018-05-25T01:57:25.869Z,1.27
2018-05-25T01:59:53.461Z,0.80
2018-05-25T02:02:21.073Z,1.30
2018-05-25T02:04:48.687Z,0.93
2018-05-25T02:07:16.290Z,0.97
2018-05-25T02:09:44.658Z,1.00
2018-05-25T02:12:12.250Z,1.00
2018-05-25T02:14:40.618Z,0.90
2018-05-25T02:17:08.219Z,0.90
2018-05-25T02:19:35.826Z,1.43
2018-05-25T02:22:03.463Z,1.27
2018-05-25T02:24:31.080Z,1.60
2018-05-25T02:26:59.454Z,1.30
2018-05-25T02:29:27.814Z,1.43
2018-05-25T02:31:55.419Z,1.37
2018-05-25T02:34:23.022Z,0.97
2018-05-25T02:36:50.639Z,1.13
2018-05-25T02:39:18.252Z,1.30
2018-05-25T02:41:46.634Z,1.37
2018-05-25T02:44:15.016Z,1.60
2018-05-25T02:46:43.382Z,1.00
2018-05-25T02:49:10.989Z,1.73
2018-05-25T02:51:38.584Z,1.50
2018-05-25T02:54:06.203Z,0.93
2018-05-25T02:56:33.814Z,1.30
2018-05-25T02:59:01.410Z,1.20
2018-05-25T03:01:29.006Z,1.43
2018-05-25T03:03:56.612Z,1.30
2018-05-25T03:06:24.983Z,1.10
2018-05-25T03:08:53.350Z,1.13
2018-05-25T03:11:20.979Z,0.93
2018-05-25T03:13:48.574Z,0.90
2018-05-25T03:16:16.178Z,0.93
2018-05-25T03:18:43.774Z,1.13
2018-05-25T03:21:11.381Z,1.10
2018-05-25T03:23:38.982Z,1.27
2018-05-25T03:26:06.583Z,1.00
2018-05-25T03:28:34.981Z,1.10
2018-05-25T03:31:02.591Z,1.40
2018-05-25T03:33:31.709Z,1.00
2018-05-25T03:36:00.082Z,1.10
2018-05-25T03:38:28.466Z,1.63
2018-05-25T03:40:56.068Z,0.80
2018-05-25T03:43:23.682Z,1.30
2018-05-25T03:45:52.059Z,1.20
2018-05-25T03:48:19.707Z,1.10
2018-05-25T03:50:47.333Z,1.23
2018-05-25T03:53:14.963Z,1.43
2018-05-25T03:55:42.580Z,1.10
2018-05-25T03:58:10.218Z,1.30
2018-05-25T04:00:49.630Z,1.47
2018-05-25T04:03:17.234Z,1.30
2018-05-25T04:05:44.858Z,1.13
2018-05-25T04:08:12.472Z,1.20
2018-05-25T04:10:40.854Z,1.67
2018-05-25T04:13:08.487Z,1.80
2018-05-25T04:15:36.107Z,2.20
2018-05-25T04:18:03.734Z,1.50
2018-05-25T04:20:32.106Z,2.50
2018-05-25T04:22:59.732Z,1.83
2018-05-25T04:25:27.339Z,1.83
2018-05-25T04:27:55.710Z,2.00
2018-05-25T04:30:24.207Z,2.20
2018-05-25T04:32:52.572Z,2.20
2018-05-25T04:35:20.938Z,2.10
2018-05-25T04:37:48.558Z,2.40
2018-05-25T04:40:16.155Z,2.37
2018-05-25T04:42:43.776Z,2.30
2018-05-25T04:45:11.393Z,3.03
2018-05-25T04:47:39.771Z,2.47
2018-05-25T04:50:08.142Z,2.63
2018-05-25T04:52:36.516Z,2.90
2018-05-25T04:55:04.894Z,3.00
2018-05-25T04:57:33.266Z,2.57
2018-05-25T05:00:00.995Z,2.73
2018-05-25T05:02:28.602Z,2.90
2018-05-25T05:04:57.018Z,2.77
2018-05-25T05:07:24.630Z,2.00
2018-05-25T05:09:52.995Z,2.70
2018-05-25T05:12:20.602Z,2.43
2018-05-25T05:14:48.213Z,2.27
2018-05-25T05:17:15.826Z,2.17
2018-05-25T05:19:43.427Z,2.30
2018-05-25T05:22:11.042Z,2.33
2018-05-25T05:24:38.643Z,2.10
2018-05-25T05:27:06.247Z,1.97
2018-05-25T05:29:33.854Z,2.10
2018-05-25T05:32:01.470Z,2.33
2018-05-25T05:34:29.094Z,2.30
2018-05-25T05:36:56.734Z,2.20
2018-05-25T05:39:24.338Z,2.70
2018-05-25T05:41:52.710Z,2.17
2018-05-25T05:44:21.082Z,1.73
2018-05-25T05:46:49.451Z,2.07
2018-05-25T05:49:17.070Z,2.07
2018-05-25T05:51:44.695Z,2.40
2018-05-25T05:54:13.065Z,2.37
2018-05-25T05:56:41.426Z,2.03
2018-05-25T05:59:09.075Z,1.90
2018-05-25T06:01:36.678Z,2.23
2018-05-25T06:04:04.282Z,2.33
2018-05-25T06:06:31.898Z,2.17
2018-05-25T06:08:59.498Z,2.37
2018-05-25T06:11:27.122Z,2.13
2018-05-25T06:13:54.726Z,2.00
2018-05-25T06:16:22.334Z,2.20
2018-05-25T06:18:49.954Z,2.17
2018-05-25T06:21:17.562Z,2.10
2018-05-25T06:23:45.159Z,2.03
2018-05-25T06:26:12.766Z,2.37
2018-05-25T06:28:40.376Z,1.53
2018-05-25T06:31:07.974Z,1.70
2018-05-25T06:33:36.374Z,1.90
2018-05-25T06:36:03.984Z,1.87
2018-05-25T06:38:31.662Z,2.17
2018-05-25T06:40:59.262Z,2.10
2018-05-25T06:43:26.898Z,1.57
2018-05-25T06:45:55.274Z,1.73
2018-05-25T06:48:23.634Z,1.77
2018-05-25T06:50:51.242Z,1.63
2018-05-25T06:53:18.850Z,2.27
2018-05-25T06:55:46.460Z,1.57
2018-05-25T06:58:14.078Z,1.87
2018-05-25T07:00:42.446Z,1.87
2018-05-25T07:03:10.064Z,2.17
2018-05-25T07:05:37.670Z,2.10
2018-05-25T07:08:06.046Z,1.77
2018-05-25T07:10:33.650Z,1.80
2018-05-25T07:13:01.333Z,1.63
2018-05-25T07:15:28.946Z,1.70
2018-05-25T07:17:57.314Z,1.90
2018-05-25T07:20:25.694Z,1.90
2018-05-25T07:22:54.067Z,1.80
2018-05-25T07:25:22.481Z,2.07
2018-05-25T07:27:50.091Z,1.57
2018-05-25T07:30:17.702Z,1.80
2018-05-25T07:32:45.306Z,1.93
2018-05-25T07:35:12.948Z,2.00
2018-05-25T07:37:40.543Z,1.90
2018-05-25T07:40:08.910Z,2.07
2018-05-25T07:42:37.347Z,1.90
2018-05-25T07:45:04.953Z,1.67
2018-05-25T07:47:32.579Z,2.20
2018-05-25T07:50:00.186Z,2.17
2018-05-25T07:52:28.558Z,1.93
2018-05-25T07:54:56.919Z,1.70
2018-05-25T07:57:24.526Z,2.20
2018-05-25T07:59:52.150Z,2.47
2018-05-25T08:02:20.518Z,2.13
2018-05-25T08:04:48.141Z,2.40
2018-05-25T08:07:15.742Z,1.63
2018-05-25T08:09:43.350Z,1.50
2018-05-25T08:12:10.960Z,1.90
2018-05-25T08:14:38.570Z,1.70
2018-05-25T08:17:06.170Z,1.60
2018-05-25T08:19:33.826Z,1.63
2018-05-25T08:22:01.482Z,1.80
2018-05-25T08:24:29.077Z,1.50
2018-05-25T08:26:57.450Z,1.48
2018-05-25T08:29:25.826Z,1.55
2018-05-25T08:31:54.207Z,1.52
2018-05-25T08:34:22.587Z,1.42
2018-05-25T08:36:50.967Z,1.62
2018-05-25T08:39:19.335Z,1.95
2018-05-25T08:41:47.707Z,2.00
2018-05-25T08:44:16.103Z,1.55
2018-05-25T08:46:44.487Z,2.15
2018-05-25T08:49:12.099Z,2.03
2018-05-25T08:51:39.699Z,1.42
2018-05-25T08:54:08.167Z,1.33
2018-05-25T08:56:36.549Z,2.00
2018-05-25T08:59:04.918Z,1.70
2018-05-25T09:01:33.302Z,1.58
2018-05-25T09:04:01.758Z,1.60
2018-05-25T09:06:29.378Z,1.52
2018-05-25T09:08:56.988Z,1.90
2018-05-25T09:11:24.646Z,1.85
2018-05-25T09:13:52.264Z,1.55
2018-05-25T09:16:19.879Z,1.33
2018-05-25T09:18:48.258Z,1.60
2018-05-25T09:21:16.634Z,1.50
2018-05-25T09:23:45.042Z,1.48
2018-05-25T09:26:12.654Z,1.05
2018-05-25T09:28:40.262Z,1.55
2018-05-25T09:31:07.887Z,1.85
2018-05-25T09:33:36.266Z,1.87
2018-05-25T09:36:04.642Z,2.05
2018-05-25T09:38:33.385Z,1.60
2018-05-25T09:41:00.994Z,1.90
2018-05-25T09:43:29.369Z,1.60
2018-05-25T09:45:57.762Z,1.40
2018-05-25T09:48:26.138Z,1.95
2018-05-25T09:50:54.500Z,1.48
2018-05-25T09:53:22.886Z,2.15
2018-05-25T09:55:51.262Z,1.65
2018-05-25T09:58:19.639Z,1.90
2018-05-25T10:00:48.002Z,1.62
2018-05-25T10:03:15.661Z,2.05
2018-05-25T10:05:43.250Z,1.80
2018-05-25T10:08:10.875Z,2.20
2018-05-25T10:10:38.493Z,1.95
2018-05-25T10:13:06.120Z,2.37
2018-05-25T10:15:34.486Z,2.42
2018-05-25T10:18:02.874Z,2.15
2018-05-25T10:20:31.250Z,2.22
2018-05-25T10:22:59.625Z,2.03
2018-05-25T10:25:27.998Z,2.00
2018-05-25T10:27:56.364Z,2.15
2018-05-25T10:30:23.984Z,2.03
2018-05-25T10:32:51.592Z,1.80
2018-05-25T10:35:19.203Z,1.83
2018-05-25T10:37:46.823Z,2.87
2018-05-25T10:40:15.214Z,2.25
2018-05-25T10:42:42.874Z,1.90
2018-05-25T10:45:11.235Z,2.30
2018-05-25T10:47:38.951Z,2.45
2018-05-25T10:50:06.551Z,2.30
2018-05-25T10:52:34.928Z,2.08
2018-05-25T10:55:03.355Z,2.30
2018-05-25T10:57:30.956Z,2.50
2018-05-25T10:59:58.566Z,2.40
2018-05-25T11:02:26.175Z,2.45
2018-05-25T11:04:53.786Z,2.20
2018-05-25T11:07:21.397Z,2.62
2018-05-25T11:09:49.047Z,5.15
2018-05-25T11:12:16.651Z,2.53
2018-05-25T11:14:44.338Z,2.50
2018-05-25T11:17:11.938Z,2.72
2018-05-25T11:19:39.566Z,2.85
2018-05-25T11:22:07.170Z,3.47
2018-05-25T11:24:35.536Z,2.50
2018-05-25T11:27:03.261Z,2.65
2018-05-25T11:29:30.895Z,2.90
2018-05-25T11:31:58.515Z,2.50
2018-05-25T11:34:26.139Z,2.47
2018-05-25T11:36:53.743Z,2.47
2018-05-25T11:39:22.121Z,2.47
2018-05-25T11:41:50.516Z,2.58
2018-05-25T11:44:18.122Z,2.65
2018-05-25T11:46:45.734Z,2.30
2018-05-25T11:49:14.114Z,2.12
2018-05-25T11:51:42.490Z,2.00
2018-05-25T11:54:10.879Z,2.45
2018-05-25T11:56:38.494Z,2.20
2018-05-25T11:59:06.106Z,2.30
2018-05-25T12:01:33.710Z,2.20
2018-05-25T12:04:01.321Z,2.10
2018-05-25T12:06:28.939Z,2.40
2018-05-25T12:08:56.538Z,2.20
2018-05-25T12:11:24.158Z,2.58
2018-05-25T12:13:51.774Z,2.28
2018-05-25T12:16:19.391Z,1.60
2018-05-25T12:18:47.780Z,2.70
2018-05-25T12:21:16.147Z,2.17
2018-05-25T12:23:44.523Z,2.33
2018-05-25T12:26:12.907Z,2.53
2018-05-25T12:28:41.294Z,2.30
2018-05-25T12:31:09.659Z,2.08
2018-05-25T12:33:38.052Z,1.98
2018-05-25T12:36:05.674Z,2.37
2018-05-25T12:38:33.286Z,2.70
2018-05-25T12:41:00.902Z,2.17
2018-05-25T12:43:28.527Z,2.20
2018-05-25T12:45:56.139Z,2.03
2018-05-25T12:48:24.518Z,2.00
2018-05-25T12:50:52.891Z,2.00
2018-05-25T12:53:21.268Z,1.87
2018-05-25T12:55:49.674Z,2.10
2018-05-25T12:58:17.318Z,1.60
2018-05-25T13:00:45.703Z,2.30
2018-05-25T13:03:13.358Z,1.80
2018-05-25T13:05:41.728Z,2.85
2018-05-25T13:08:10.093Z,1.80
2018-05-25T13:10:38.479Z,2.15
2018-05-25T13:13:06.856Z,2.30
2018-05-25T13:15:35.237Z,1.70
2018-05-25T13:18:03.618Z,2.12
2018-05-25T13:20:31.991Z,1.55
2018-05-25T13:23:00.358Z,1.62
2018-05-25T13:25:28.770Z,2.20
2018-05-25T13:27:56.378Z,2.17
2018-05-25T13:30:23.995Z,1.50
2018-05-25T13:32:51.625Z,2.10
2018-05-25T13:35:19.991Z,2.00
2018-05-25T13:37:47.610Z,2.10
2018-05-25T13:40:15.223Z,1.77
2018-05-25T13:42:43.608Z,1.33
2018-05-25T13:45:11.975Z,2.12
2018-05-25T13:47:40.350Z,1.60
2018-05-25T13:50:08.731Z,1.92
2018-05-25T13:52:37.099Z,1.92
2018-05-25T13:55:04.755Z,1.80
2018-05-25T13:57:32.365Z,1.80
2018-05-25T13:59:59.982Z,1.80
2018-05-25T14:02:28.359Z,1.83
2018-05-25T14:04:55.978Z,3.00
2018-05-25T14:07:23.598Z,1.95
2018-05-25T14:09:51.975Z,1.67
2018-05-25T14:12:20.356Z,1.80
2018-05-25T14:14:47.966Z,1.87
2018-05-25T14:17:15.645Z,1.70
2018-05-25T14:19:43.259Z,2.60
2018-05-25T14:22:10.859Z,1.50
2018-05-25T14:24:38.486Z,1.62
2018-05-25T14:27:06.087Z,1.70
2018-05-25T14:29:33.705Z,1.48
2018-05-25T14:32:01.320Z,2.00
2018-05-25T14:34:29.694Z,1.77
2018-05-25T14:36:58.066Z,1.87
2018-05-25T14:39:25.674Z,1.67
2018-05-25T14:41:53.302Z,1.70
2018-05-25T14:44:21.686Z,1.40
2018-05-25T14:46:49.308Z,1.70
2018-05-25T14:51:50.806Z,1.42
2018-05-25T14:54:19.174Z,1.83
2018-05-25T14:56:47.570Z,1.23
2018-05-25T14:59:15.190Z,1.10
2018-05-25T15:01:42.799Z,1.77
2018-05-25T15:04:10.399Z,1.50
2018-05-25T15:06:38.043Z,1.40
2018-05-25T15:09:05.675Z,1.55
2018-05-25T15:11:33.299Z,1.40
2018-05-25T15:14:01.025Z,1.48
2018-05-25T15:16:28.639Z,1.33
2018-05-25T15:18:57.043Z,1.50
2018-05-25T15:21:24.663Z,1.50
2018-05-25T15:23:52.280Z,1.83
2018-05-25T15:26:19.889Z,1.70
2018-05-25T15:28:48.297Z,3.03
2018-05-25T15:31:15.909Z,2.10
2018-05-25T15:33:43.542Z,1.83
2018-05-25T15:36:11.165Z,1.35
2018-05-25T15:38:38.771Z,1.67
2018-05-25T15:41:06.389Z,1.65
2018-05-25T15:43:34.007Z,1.60
2018-05-25T15:46:01.618Z,1.80
2018-05-25T15:48:29.226Z,2.08
2018-05-25T15:50:56.867Z,1.58
2018-05-25T15:53:24.483Z,1.92
2018-05-25T15:55:52.095Z,1.30
2018-05-25T15:58:19.728Z,1.60
2018-05-25T16:00:47.338Z,1.83
2018-05-25T16:03:14.959Z,1.50
2018-05-25T16:05:42.575Z,1.80
2018-05-25T16:08:11.322Z,1.60
2018-05-25T16:10:38.939Z,1.77
2018-05-25T16:13:06.574Z,1.92
2018-05-25T16:15:34.941Z,1.70
2018-05-25T16:18:02.553Z,1.90
2018-05-25T16:20:30.198Z,2.25
2018-05-25T16:22:57.807Z,2.00
2018-05-25T16:25:25.422Z,1.83
2018-05-25T16:27:53.039Z,1.70
2018-05-25T16:30:20.662Z,2.08
2018-05-25T16:32:49.054Z,1.90
2018-05-25T16:35:16.670Z,1.85
2018-05-25T16:37:44.315Z,1.50
2018-05-25T16:40:12.693Z,1.87
2018-05-25T16:42:40.329Z,2.50
2018-05-25T16:45:07.932Z,2.12
2018-05-25T16:47:35.572Z,1.73
2018-05-25T16:50:04.052Z,2.03
2018-05-25T16:52:31.627Z,1.87
2018-05-25T16:54:59.240Z,2.37
2018-05-25T16:57:26.854Z,2.00
2018-05-25T16:59:54.464Z,2.08
2018-05-25T17:02:22.070Z,1.87
2018-05-25T17:04:49.678Z,2.22
2018-05-25T17:07:17.275Z,2.17
2018-05-25T17:09:44.902Z,2.22
2018-05-25T17:12:12.533Z,1.90
2018-05-25T17:14:40.149Z,1.80
2018-05-25T17:17:08.523Z,1.90
2018-05-25T17:19:36.911Z,2.30
2018-05-25T17:22:05.294Z,2.20
2018-05-25T17:24:32.907Z,2.45
2018-05-25T17:27:00.571Z,3.33
2018-05-25T17:29:28.178Z,2.80
2018-05-25T17:31:55.779Z,2.25
2018-05-25T17:34:23.412Z,2.60
2018-05-25T17:36:51.014Z,2.60
2018-05-25T17:39:18.631Z,1.87
2018-05-25T17:41:46.244Z,2.45
2018-05-25T17:44:14.638Z,2.30
2018-05-25T17:46:43.038Z,2.05
2018-05-25T17:49:10.671Z,2.40
2018-05-25T17:51:39.053Z,2.25
2018-05-25T17:54:06.662Z,1.90
2018-05-25T17:56:34.267Z,1.97
2018-05-25T17:59:02.630Z,2.50
2018-05-25T18:01:30.242Z,2.27
2018-05-25T18:03:57.858Z,2.20
2018-05-25T18:06:26.235Z,1.70
2018-05-25T18:08:53.874Z,2.33
2018-05-25T18:11:21.482Z,1.90
2018-05-25T18:13:49.095Z,2.13
2018-05-25T18:16:16.718Z,2.10
2018-05-25T18:18:44.363Z,2.17
2018-05-25T18:21:11.974Z,2.70
2018-05-25T18:23:39.598Z,2.70
2018-05-25T18:26:07.207Z,2.10
2018-05-25T18:28:34.826Z,2.20
2018-05-25T18:31:02.443Z,1.83
2018-05-25T18:33:30.815Z,2.00
2018-05-25T18:35:59.203Z,2.50
2018-05-25T18:38:27.566Z,2.80
2018-05-25T18:40:55.963Z,2.30
2018-05-25T18:43:24.342Z,2.67
2018-05-25T18:45:52.743Z,2.13
2018-05-25T18:48:20.363Z,2.20
2018-05-25T18:50:48.727Z,2.07
2018-05-25T18:53:16.343Z,2.00
2018-05-25T18:55:43.967Z,2.43
2018-05-25T18:58:12.334Z,2.53
2018-05-25T19:00:40.711Z,1.97
2018-05-25T19:03:09.103Z,2.50
2018-05-25T19:05:37.477Z,2.20
2018-05-25T19:08:05.859Z,2.67
2018-05-25T19:10:34.266Z,2.30
2018-05-25T19:13:01.871Z,2.80
2018-05-25T19:15:29.471Z,2.80
2018-05-25T19:17:57.086Z,2.90
2018-05-25T19:20:24.690Z,2.30
2018-05-25T19:22:52.311Z,3.00
2018-05-25T19:25:19.918Z,2.50
2018-05-25T19:27:47.535Z,2.90
2018-05-25T19:30:15.143Z,2.90
2018-05-25T19:32:42.758Z,3.03
2018-05-25T19:35:11.143Z,3.10
2018-05-25T19:37:39.508Z,2.77
2018-05-25T19:40:07.133Z,3.40
2018-05-25T19:42:34.734Z,2.83
2018-05-25T19:45:03.129Z,2.93
2018-05-25T19:47:31.519Z,2.90
2018-05-25T19:49:59.134Z,2.53
2018-05-25T19:52:26.761Z,2.77
2018-05-25T19:54:54.390Z,2.80
2018-05-25T19:57:22.007Z,2.93
2018-05-25T19:59:51.114Z,2.80
2018-05-25T20:02:18.747Z,2.83
2018-05-25T20:04:46.358Z,3.27
2018-05-25T20:07:14.736Z,3.57
2018-05-25T20:09:43.137Z,3.20
2018-05-25T20:12:10.751Z,3.00
2018-05-25T20:14:38.362Z,3.03
2018-05-25T20:17:05.975Z,3.00
2018-05-25T20:19:33.589Z,3.33
2018-05-25T20:22:01.202Z,2.90
2018-05-25T20:24:29.578Z,2.73
2018-05-25T20:26:57.966Z,3.67
2018-05-25T20:29:26.334Z,3.50
2018-05-25T20:31:54.832Z,3.77
2018-05-25T20:34:22.446Z,4.67
2018-05-25T20:36:50.099Z,3.20
2018-05-25T20:39:17.712Z,3.33
2018-05-25T20:41:45.315Z,2.90
2018-05-25T20:44:12.931Z,2.60
2018-05-25T20:46:41.314Z,3.43
2018-05-25T20:49:08.929Z,3.53
2018-05-25T20:51:36.546Z,3.93
2018-05-25T20:54:04.182Z,3.13
2018-05-25T20:56:32.564Z,3.13
2018-05-25T20:59:00.167Z,2.73
2018-05-25T21:01:27.775Z,2.90
2018-05-25T21:03:56.140Z,3.20
2018-05-25T21:06:23.753Z,2.80
2018-05-25T21:08:51.380Z,2.73
2018-05-25T21:11:18.986Z,2.10
2018-05-25T21:13:46.595Z,2.43
2018-05-25T21:16:14.966Z,2.37
2018-05-25T21:18:43.345Z,2.67
2018-05-25T21:21:11.707Z,2.87
2018-05-25T21:23:39.379Z,2.40
2018-05-25T21:26:07.750Z,2.63
2018-05-25T21:28:36.114Z,2.17
2018-05-25T21:31:03.728Z,3.40
2018-05-25T21:33:31.330Z,2.73
2018-05-25T21:35:58.946Z,2.80
2018-05-25T21:38:26.605Z,3.10
2018-05-25T21:40:54.210Z,2.90
2018-05-25T21:43:21.807Z,2.60
2018-05-25T21:45:50.178Z,2.70
2018-05-25T21:48:18.550Z,3.00
2018-05-25T21:50:46.910Z,2.77
2018-05-25T21:53:14.660Z,2.60
2018-05-25T21:55:42.255Z,2.67
2018-05-25T21:58:10.655Z,2.27
2018-05-25T22:00:38.306Z,2.67
2018-05-25T22:03:05.907Z,3.00
2018-05-25T22:05:33.511Z,2.40
2018-05-25T22:08:01.906Z,2.30
2018-05-25T22:10:29.522Z,2.30
2018-05-25T22:12:57.124Z,2.50
2018-05-25T22:15:24.783Z,2.80
2018-05-25T22:17:52.391Z,2.30
2018-05-25T22:20:19.998Z,2.60
2018-05-25T22:22:48.382Z,2.90
2018-05-25T22:25:15.990Z,2.43
2018-05-25T22:27:43.624Z,2.93
2018-05-25T22:30:11.235Z,2.27
2018-05-25T22:32:39.645Z,2.47
2018-05-25T22:35:07.246Z,3.00
2018-05-25T22:37:34.869Z,2.77
2018-05-25T22:40:02.471Z,2.50
2018-05-25T22:42:41.999Z,2.83
2018-05-25T22:45:21.373Z,2.70
2018-05-25T22:48:01.560Z,2.70
2018-05-25T22:50:40.918Z,2.90
2018-05-25T22:53:13.582Z,2.70
2018-05-25T22:55:41.186Z,2.67
2018-05-25T22:58:08.815Z,2.17
2018-05-25T23:00:36.438Z,2.57
2018-05-25T23:03:04.035Z,2.60
2018-05-25T23:05:31.650Z,2.67
2018-05-25T23:08:00.033Z,2.60
2018-05-25T23:10:27.639Z,3.27
2018-05-25T23:12:55.262Z,2.67
2018-05-25T23:15:22.915Z,2.43
2018-05-25T23:17:50.514Z,2.53
2018-05-25T23:20:18.138Z,2.63
2018-05-25T23:22:45.752Z,2.30
2018-05-25T23:25:13.356Z,2.30
2018-05-25T23:27:40.973Z,2.53
2018-05-25T23:30:08.577Z,2.87
2018-05-25T23:32:36.178Z,2.57
2018-05-25T23:35:03.795Z,3.00
2018-05-25T23:37:31.406Z,2.47
2018-05-25T23:39:59.026Z,2.67
2018-05-25T23:42:26.627Z,2.80
2018-05-25T23:44:54.267Z,2.60
2018-05-25T23:47:21.862Z,3.27
2018-05-25T23:49:49.469Z,2.43
2018-05-25T23:52:17.092Z,2.80
2018-05-25T23:54:45.450Z,3.40
2018-05-25T23:57:13.071Z,2.60
2018-05-25T23:59:40.682Z,2.80
